createdAt,value
2019-01-04T00:01:25.831Z,33.80
2019-01-04T00:03:58.172Z,36.23
2019-01-04T00:06:27.695Z,42.83
2019-01-04T00:08:57.694Z,35.87
2019-01-04T00:11:27.313Z,33.57
2019-01-04T00:13:56.578Z,37.77
2019-01-04T00:16:26.285Z,35.53
2019-01-04T00:18:55.827Z,39.67
2019-01-04T00:21:25.126Z,41.60
2019-01-04T00:23:54.684Z,35.50
2019-01-04T00:26:24.251Z,39.43
2019-01-04T00:28:53.607Z,35.50
2019-01-04T00:31:24.253Z,36.33
2019-01-04T00:33:53.561Z,36.83
2019-01-04T00:36:23.172Z,42.70
2019-01-04T00:39:15.936Z,32.27
2019-01-04T00:41:45.591Z,43.73
2019-01-04T00:44:15.426Z,37.23
2019-01-04T00:46:44.720Z,43.80
2019-01-04T00:49:17.031Z,43.83
2019-01-04T00:51:46.591Z,42.43
2019-01-04T00:54:17.547Z,41.10
2019-01-04T00:57:34.120Z,40.93
2019-01-04T01:00:45.658Z,34.20
2019-01-04T01:03:54.260Z,38.80
2019-01-04T01:06:58.430Z,34.43
2019-01-04T01:10:04.791Z,43.40
2019-01-04T01:13:06.401Z,39.47
2019-01-04T01:16:11.850Z,38.20
2019-01-04T01:19:17.592Z,42.50
2019-01-04T01:22:22.661Z,43.57
2019-01-04T01:25:26.971Z,46.87
2019-01-04T01:28:55.286Z,42.83
2019-01-04T01:32:01.151Z,43.90
2019-01-04T01:35:06.456Z,37.70
2019-01-04T01:38:09.622Z,55.63
2019-01-04T01:41:20.730Z,53.27
2019-01-04T01:44:39.323Z,39.63
2019-01-04T01:47:26.070Z,44.63
2019-01-04T01:50:57.524Z,38.73
2019-01-04T01:53:39.515Z,36.40
2019-01-04T01:56:08.808Z,42.43
2019-01-04T01:58:38.654Z,47.13
2019-01-04T02:01:08.420Z,42.70
2019-01-04T02:03:37.958Z,41.13
2019-01-04T02:06:07.516Z,42.60
2019-01-04T02:08:37.074Z,41.77
2019-01-04T02:11:06.385Z,42.67
2019-01-04T02:13:35.671Z,44.27
2019-01-04T02:16:04.927Z,44.00
2019-01-04T02:18:34.564Z,39.83
2019-01-04T02:21:04.115Z,46.67
2019-01-04T02:23:33.652Z,42.90
2019-01-04T02:26:02.938Z,46.20
2019-01-04T02:28:32.515Z,39.30
2019-01-04T02:31:02.177Z,42.77
2019-01-04T02:33:32.043Z,47.30
2019-01-04T02:36:01.377Z,39.93
2019-01-04T02:38:31.771Z,49.03
2019-01-04T02:41:01.061Z,42.53
2019-01-04T02:43:30.756Z,45.37
2019-01-04T02:46:00.355Z,41.80
2019-01-04T02:48:29.719Z,49.47
2019-01-04T02:50:59.112Z,47.20
2019-01-04T02:53:28.881Z,50.37
2019-01-04T02:55:58.517Z,54.33
2019-01-04T02:58:28.101Z,52.43
2019-01-04T03:00:58.074Z,48.83
2019-01-04T03:03:27.423Z,49.27
2019-01-04T03:05:57.073Z,51.17
2019-01-04T03:08:26.860Z,55.67
2019-01-04T03:10:56.286Z,45.67
2019-01-04T03:13:25.822Z,48.17
2019-01-04T03:15:56.059Z,51.87
2019-01-04T03:18:25.630Z,47.63
2019-01-04T03:20:55.391Z,49.43
2019-01-04T03:23:24.663Z,57.57
2019-01-04T03:25:54.235Z,45.43
2019-01-04T03:28:23.578Z,47.70
2019-01-04T03:30:54.313Z,55.17
2019-01-04T03:33:23.844Z,55.77
2019-01-04T03:35:53.241Z,49.53
2019-01-04T03:38:22.530Z,54.13
2019-01-04T03:40:51.826Z,59.37
2019-01-04T03:43:21.114Z,52.57
2019-01-04T03:45:50.424Z,47.57
2019-01-04T03:48:19.706Z,62.93
2019-01-04T03:50:48.995Z,56.07
2019-01-04T03:53:18.287Z,55.03
2019-01-04T03:55:47.915Z,56.90
2019-01-04T03:58:17.224Z,60.57
2019-01-04T04:00:46.505Z,61.77
2019-01-04T04:03:15.839Z,55.60
2019-01-04T04:05:45.109Z,61.50
2019-01-04T04:08:14.406Z,73.90
2019-01-04T04:10:43.957Z,67.83
2019-01-04T04:13:13.241Z,64.90
2019-01-04T04:15:42.776Z,68.57
2019-01-04T04:18:12.360Z,63.23
2019-01-04T04:20:41.695Z,59.03
2019-01-04T04:23:10.955Z,67.67
2019-01-04T04:25:40.248Z,62.80
2019-01-04T04:28:09.525Z,61.60
2019-01-04T04:30:38.836Z,71.70
2019-01-04T04:33:08.111Z,65.03
2019-01-04T04:35:37.411Z,62.30
2019-01-04T04:38:06.931Z,68.47
2019-01-04T04:40:36.280Z,67.10
2019-01-04T04:43:05.825Z,53.20
2019-01-04T04:45:35.363Z,72.27
2019-01-04T04:48:04.914Z,63.77
2019-01-04T04:50:34.471Z,72.03
2019-01-04T04:53:03.758Z,79.33
2019-01-04T04:55:33.288Z,76.93
2019-01-04T04:58:02.578Z,89.17
2019-01-04T05:00:31.894Z,70.07
2019-01-04T05:03:01.139Z,74.67
2019-01-04T05:05:30.422Z,77.30
2019-01-04T05:07:59.684Z,80.53
2019-01-04T05:10:28.976Z,85.13
2019-01-04T05:12:58.598Z,87.40
2019-01-04T05:15:27.881Z,81.47
2019-01-04T05:17:57.403Z,96.80
2019-01-04T05:20:26.681Z,97.10
2019-01-04T05:22:55.962Z,100.80
2019-01-04T05:25:25.523Z,87.70
2019-01-04T05:27:54.814Z,91.60
2019-01-04T05:30:24.156Z,92.87
2019-01-04T05:32:53.460Z,86.37
2019-01-04T05:35:22.811Z,77.70
2019-01-04T05:37:52.105Z,107.30
2019-01-04T05:40:21.372Z,90.93
2019-01-04T05:42:50.667Z,89.67
2019-01-04T05:45:19.939Z,85.83
2019-01-04T05:47:49.237Z,84.40
2019-01-04T05:50:18.485Z,90.87
2019-01-04T05:52:48.104Z,94.80
2019-01-04T05:55:17.380Z,88.37
2019-01-04T05:57:46.956Z,102.07
2019-01-04T06:00:17.039Z,88.90
2019-01-04T06:02:46.329Z,83.47
2019-01-04T06:05:15.583Z,82.60
2019-01-04T06:07:44.860Z,78.00
2019-01-04T06:10:14.604Z,70.17
2019-01-04T06:12:43.875Z,67.87
2019-01-04T06:15:13.177Z,55.90
2019-01-04T06:17:42.455Z,54.27
2019-01-04T06:20:11.736Z,52.27
2019-01-04T06:22:41.012Z,51.67
2019-01-04T06:25:10.678Z,52.57
2019-01-04T06:27:40.031Z,48.77
2019-01-04T06:30:09.422Z,44.83
2019-01-04T06:32:39.047Z,40.67
2019-01-04T06:35:08.336Z,41.63
2019-01-04T06:37:37.629Z,43.83
2019-01-04T06:40:08.704Z,38.47
2019-01-04T06:42:37.982Z,38.13
2019-01-04T06:45:07.513Z,37.47
2019-01-04T06:47:37.536Z,35.10
2019-01-04T06:50:08.000Z,35.67
2019-01-04T06:52:37.292Z,37.57
2019-01-04T06:55:46.578Z,33.70
2019-01-04T06:58:16.215Z,31.80
2019-01-04T07:00:45.483Z,27.00
2019-01-04T07:03:15.049Z,32.00
2019-01-04T07:05:44.316Z,31.17
2019-01-04T07:08:13.934Z,29.47
2019-01-04T07:10:43.242Z,31.10
2019-01-04T07:13:12.537Z,40.50
2019-01-04T07:15:42.096Z,38.10
2019-01-04T07:18:11.398Z,36.67
2019-01-04T07:20:40.662Z,33.43
2019-01-04T07:23:10.006Z,33.97
2019-01-04T07:25:39.550Z,26.87
2019-01-04T07:28:08.865Z,29.77
2019-01-04T07:30:38.460Z,27.83
2019-01-04T07:33:07.825Z,28.83
2019-01-04T07:35:37.112Z,29.03
2019-01-04T07:38:06.395Z,22.37
2019-01-04T07:40:35.695Z,22.67
2019-01-04T07:43:04.958Z,25.07
2019-01-04T07:45:34.243Z,25.53
2019-01-04T07:48:03.906Z,21.00
2019-01-04T07:50:34.468Z,20.60
2019-01-04T07:53:03.768Z,22.47
2019-01-04T07:55:33.354Z,22.80
2019-01-04T07:58:02.883Z,28.90
2019-01-04T08:00:32.222Z,21.73
2019-01-04T08:03:10.713Z,25.10
2019-01-04T08:05:39.995Z,26.90
2019-01-04T08:08:09.360Z,26.83
2019-01-04T08:10:38.757Z,26.27
2019-01-04T08:13:08.362Z,27.10
2019-01-04T08:15:37.992Z,27.73
2019-01-04T08:18:07.279Z,26.87
2019-01-04T08:20:36.548Z,32.23
2019-01-04T08:23:05.902Z,29.80
2019-01-04T08:25:35.499Z,31.33
2019-01-04T08:28:04.842Z,32.03
2019-01-04T08:30:34.475Z,29.83
2019-01-04T08:33:04.076Z,29.93
2019-01-04T08:35:33.351Z,32.97
2019-01-04T08:38:02.684Z,31.20
2019-01-04T08:40:32.293Z,33.10
2019-01-04T08:43:02.011Z,34.70
2019-01-04T08:45:31.382Z,28.57
2019-01-04T08:48:00.664Z,34.30
2019-01-04T08:50:30.356Z,37.40
2019-01-04T08:52:59.690Z,29.03
2019-01-04T08:55:30.469Z,30.13
2019-01-04T08:57:59.817Z,34.87
2019-01-04T09:00:29.142Z,27.83
2019-01-04T09:02:58.404Z,30.37
2019-01-04T09:05:27.690Z,34.57
2019-01-04T09:07:56.964Z,30.23
2019-01-04T09:10:26.612Z,27.23
2019-01-04T09:12:55.893Z,34.50
2019-01-04T09:15:25.522Z,31.43
2019-01-04T09:17:55.120Z,31.63
2019-01-04T09:20:24.407Z,31.03
2019-01-04T09:22:53.820Z,40.30
2019-01-04T09:25:23.440Z,32.83
2019-01-04T09:27:52.810Z,36.47
2019-01-04T09:30:22.406Z,35.57
2019-01-04T09:32:51.999Z,34.73
2019-01-04T09:35:21.272Z,34.73
2019-01-04T09:37:50.841Z,40.00
2019-01-04T09:40:20.147Z,34.63
2019-01-04T09:42:49.613Z,36.20
2019-01-04T09:45:18.946Z,32.87
2019-01-04T09:47:48.264Z,36.57
2019-01-04T09:50:18.105Z,37.20
2019-01-04T09:52:47.367Z,33.40
2019-01-04T09:55:16.760Z,35.77
2019-01-04T09:57:46.326Z,33.10
2019-01-04T10:00:15.696Z,34.73
2019-01-04T10:02:44.968Z,33.60
2019-01-04T10:05:14.574Z,34.13
2019-01-04T10:07:44.131Z,32.63
2019-01-04T10:10:13.711Z,32.10
2019-01-04T10:12:43.008Z,36.57
2019-01-04T10:15:14.722Z,33.20
2019-01-04T10:17:44.076Z,33.10
2019-01-04T10:20:13.647Z,37.10
2019-01-04T10:22:43.222Z,33.60
2019-01-04T10:25:12.859Z,34.53
2019-01-04T10:27:42.202Z,33.03
2019-01-04T10:30:26.906Z,37.37
2019-01-04T10:32:58.566Z,35.55
2019-01-04T10:35:28.091Z,35.17
2019-01-04T10:38:09.599Z,45.27
2019-01-04T10:40:38.845Z,32.50
2019-01-04T10:43:08.139Z,31.77
2019-01-04T10:45:37.412Z,35.53
2019-01-04T10:48:06.954Z,32.50
2019-01-04T10:50:36.243Z,33.20
2019-01-04T10:53:05.548Z,30.17
2019-01-04T10:55:36.878Z,33.97
2019-01-04T10:58:06.502Z,34.40
2019-01-04T11:00:35.799Z,30.43
2019-01-04T11:03:05.341Z,35.13
2019-01-04T11:05:34.724Z,36.57
2019-01-04T11:08:04.179Z,36.57
2019-01-04T11:10:34.703Z,33.50
2019-01-04T11:13:04.193Z,33.63
2019-01-04T11:15:33.491Z,35.40
2019-01-04T11:18:03.400Z,38.00
2019-01-04T11:20:43.652Z,33.73
2019-01-04T11:23:44.032Z,33.00
2019-01-04T11:26:21.463Z,37.03
2019-01-04T11:29:32.299Z,31.83
2019-01-04T11:32:14.104Z,28.23
2019-01-04T11:35:18.095Z,32.73
2019-01-04T11:38:02.838Z,30.50
2019-01-04T11:41:13.167Z,31.83
2019-01-04T11:44:15.711Z,27.73
2019-01-04T11:47:35.135Z,24.17
2019-01-04T11:50:36.913Z,20.13
2019-01-04T11:53:13.705Z,20.87
2019-01-04T11:55:43.212Z,19.27
2019-01-04T11:58:12.491Z,26.83
2019-01-04T12:00:42.015Z,21.33
2019-01-04T12:03:11.328Z,19.87
2019-01-04T12:05:40.948Z,16.73
2019-01-04T12:08:10.488Z,21.30
2019-01-04T12:10:42.843Z,16.77
2019-01-04T12:13:12.851Z,18.97
2019-01-04T12:15:42.128Z,16.70
2019-01-04T12:18:11.673Z,17.20
2019-01-04T12:20:45.356Z,11.17
2019-01-04T12:23:12.220Z,15.63
2019-01-04T12:25:41.584Z,19.73
2019-01-04T12:28:11.132Z,14.57
2019-01-04T12:30:40.700Z,15.77
2019-01-04T12:33:10.047Z,15.03
2019-01-04T12:35:39.335Z,14.17
2019-01-04T12:38:08.744Z,12.80
2019-01-04T12:40:38.309Z,18.57
2019-01-04T12:43:07.575Z,21.37
2019-01-04T12:45:36.956Z,18.60
2019-01-04T12:48:06.234Z,22.07
2019-01-04T12:50:35.518Z,20.30
2019-01-04T12:53:05.052Z,20.67
2019-01-04T12:55:34.646Z,24.73
2019-01-04T12:58:03.948Z,18.07
2019-01-04T13:00:33.264Z,17.57
2019-01-04T13:03:02.545Z,18.63
2019-01-04T13:05:33.178Z,17.70
2019-01-04T13:08:02.507Z,22.32
2019-01-04T13:10:31.783Z,22.03
2019-01-04T13:13:01.064Z,29.03
2019-01-04T13:15:30.326Z,24.83
2019-01-04T13:17:59.614Z,22.93
2019-01-04T13:20:28.995Z,22.40
2019-01-04T13:22:58.270Z,22.90
2019-01-04T13:25:27.547Z,24.63
2019-01-04T13:27:56.831Z,24.43
2019-01-04T13:30:26.203Z,25.07
2019-01-04T13:32:55.456Z,30.47
2019-01-04T13:35:24.727Z,27.87
2019-01-04T13:37:55.623Z,29.37
2019-01-04T13:40:24.966Z,30.73
2019-01-04T13:42:54.571Z,34.37
2019-01-04T13:45:24.151Z,34.97
2019-01-04T13:47:53.466Z,31.17
2019-01-04T13:50:22.791Z,33.73
2019-01-04T13:52:52.414Z,32.93
2019-01-04T13:55:22.280Z,30.43
2019-01-04T13:57:52.107Z,32.47
2019-01-04T14:00:21.768Z,29.03
2019-01-04T14:02:53.035Z,30.27
2019-01-04T14:05:22.390Z,34.87
2019-01-04T14:07:51.716Z,32.13
2019-01-04T14:10:21.177Z,40.15
2019-01-04T14:12:51.379Z,38.70
2019-01-04T14:15:20.751Z,39.47
2019-01-04T14:17:50.442Z,38.63
2019-01-04T14:20:20.070Z,39.23
2019-01-04T14:22:49.677Z,40.30
2019-01-04T14:25:19.332Z,44.27
2019-01-04T14:27:48.613Z,45.60
2019-01-04T14:30:18.183Z,43.50
2019-01-04T14:32:47.478Z,48.40
2019-01-04T14:35:16.829Z,39.90
2019-01-04T14:37:46.329Z,42.83
2019-01-04T14:40:15.848Z,37.77
2019-01-04T14:42:45.121Z,36.07
2019-01-04T14:45:14.410Z,43.67
2019-01-04T14:47:44.283Z,44.17
2019-01-04T14:50:13.566Z,40.50
2019-01-04T14:52:43.296Z,48.67
2019-01-04T14:55:12.568Z,41.17
2019-01-04T14:57:42.168Z,42.27
2019-01-04T15:00:18.334Z,48.37
2019-01-04T15:02:47.706Z,45.10
2019-01-04T15:05:17.291Z,47.93
2019-01-04T15:07:46.843Z,43.87
2019-01-04T15:10:16.219Z,44.30
2019-01-04T15:12:45.520Z,47.50
2019-01-04T15:15:15.408Z,49.13
2019-01-04T15:17:44.955Z,49.33
2019-01-04T15:20:14.335Z,53.37
2019-01-04T15:22:43.886Z,55.47
2019-01-04T15:25:13.170Z,47.97
2019-01-04T15:27:42.443Z,46.77
2019-01-04T15:30:12.345Z,52.63
2019-01-04T15:32:41.616Z,51.17
2019-01-04T15:35:11.454Z,50.73
2019-01-04T15:37:41.043Z,56.23
2019-01-04T15:40:10.517Z,59.03
2019-01-04T15:42:40.063Z,55.63
2019-01-04T15:45:10.376Z,46.90
2019-01-04T15:47:39.658Z,53.83
2019-01-04T15:50:09.683Z,50.07
2019-01-04T15:52:38.999Z,53.23
2019-01-04T15:55:08.300Z,53.57
2019-01-04T15:57:37.846Z,46.77
2019-01-04T16:00:09.543Z,51.70
2019-01-04T16:02:39.135Z,57.13
2019-01-04T16:05:10.308Z,54.60
2019-01-04T16:07:39.899Z,53.13
2019-01-04T16:10:10.059Z,54.10
2019-01-04T16:12:39.346Z,65.10
2019-01-04T16:15:09.658Z,59.60
2019-01-04T16:17:38.943Z,63.03
2019-01-04T16:20:09.484Z,63.87
2019-01-04T16:22:38.770Z,62.57
2019-01-04T16:25:08.607Z,63.30
2019-01-04T16:27:38.159Z,67.57
2019-01-04T16:30:09.906Z,62.37
2019-01-04T16:32:39.184Z,66.57
2019-01-04T16:35:08.727Z,72.97
2019-01-04T16:37:38.001Z,69.60
2019-01-04T16:40:08.094Z,68.97
2019-01-04T16:42:37.642Z,69.73
2019-01-04T16:45:07.231Z,69.70
2019-01-04T16:47:36.544Z,75.83
2019-01-04T16:50:06.331Z,75.47
2019-01-04T16:52:35.631Z,78.77
2019-01-04T16:55:05.263Z,76.17
2019-01-04T16:57:34.555Z,72.80
2019-01-04T17:00:04.165Z,86.30
2019-01-04T17:02:33.758Z,84.97
2019-01-04T17:05:03.302Z,89.70
2019-01-04T17:07:32.840Z,81.90
2019-01-04T17:10:02.131Z,79.37
2019-01-04T17:12:31.703Z,86.40
2019-01-04T17:15:01.755Z,82.93
2019-01-04T17:17:31.391Z,89.27
2019-01-04T17:20:00.666Z,89.63
2019-01-04T17:22:33.206Z,95.50
2019-01-04T17:25:02.479Z,96.40
2019-01-04T17:27:31.798Z,93.73
2019-01-04T17:30:01.082Z,94.57
2019-01-04T17:32:30.376Z,98.47
2019-01-04T17:35:00.308Z,97.87
2019-01-04T17:37:29.886Z,99.67
2019-01-04T17:39:59.544Z,96.80
2019-01-04T17:42:29.365Z,89.93
2019-01-04T17:44:58.646Z,92.87
2019-01-04T18:06:34.757Z,95.40
2019-01-04T18:09:09.934Z,91.07
2019-01-04T18:12:02.991Z,95.57
2019-01-04T18:14:49.216Z,89.00
2019-01-04T18:17:21.651Z,90.63
2019-01-04T18:20:37.555Z,95.50
2019-01-04T18:23:06.868Z,90.20
2019-01-04T18:25:36.402Z,100.13
2019-01-04T18:28:06.029Z,86.07
2019-01-04T18:30:35.388Z,92.63
2019-01-04T18:33:04.648Z,89.47
2019-01-04T18:35:33.923Z,88.27
2019-01-04T18:38:03.547Z,89.47
2019-01-04T18:40:33.028Z,92.97
2019-01-04T18:43:02.643Z,91.73
2019-01-04T18:45:31.911Z,85.83
2019-01-04T18:48:01.288Z,92.03
2019-01-04T18:50:32.163Z,89.37
2019-01-04T18:53:03.752Z,83.63
2019-01-04T18:55:33.064Z,93.47
2019-01-04T18:58:02.353Z,92.77
2019-01-04T19:00:31.601Z,89.30
2019-01-04T19:03:01.518Z,87.80
2019-01-04T19:05:30.833Z,87.73
2019-01-04T19:08:00.416Z,89.00
2019-01-04T19:10:30.066Z,90.33
2019-01-04T19:12:59.596Z,88.50
2019-01-04T19:15:29.463Z,90.03
2019-01-04T19:17:58.748Z,84.20
2019-01-04T19:20:28.112Z,90.50
2019-01-04T19:22:57.390Z,91.43
2019-01-04T19:25:27.727Z,93.43
2019-01-04T19:27:57.596Z,85.37
2019-01-04T19:30:26.904Z,85.63
2019-01-04T19:32:56.530Z,92.00
2019-01-04T19:35:25.962Z,81.73
2019-01-04T19:37:55.527Z,84.30
2019-01-04T19:40:28.547Z,86.13
2019-01-04T19:42:57.739Z,80.80
2019-01-04T19:45:27.060Z,94.70
2019-01-04T19:47:59.376Z,89.03
2019-01-04T19:50:28.816Z,86.77
2019-01-04T19:52:58.123Z,82.63
2019-01-04T19:55:27.443Z,83.63
2019-01-04T19:58:00.376Z,90.10
2019-01-04T20:00:31.740Z,92.93
2019-01-04T20:03:01.051Z,81.57
2019-01-04T20:06:12.451Z,84.90
2019-01-04T20:09:23.126Z,89.23
2019-01-04T20:12:51.059Z,78.17
2019-01-04T20:16:19.163Z,87.93
2019-01-04T20:19:11.497Z,88.13
2019-01-04T20:22:00.046Z,87.33
2019-01-04T20:24:48.193Z,85.43
2019-01-04T20:27:39.023Z,94.00
2019-01-04T20:30:27.672Z,98.87
2019-01-04T20:33:14.564Z,90.83
2019-01-04T20:36:01.686Z,87.43
2019-01-04T20:38:48.979Z,84.17
2019-01-04T20:41:43.072Z,87.03
2019-01-04T20:44:30.168Z,84.80
2019-01-04T20:47:18.247Z,80.90
2019-01-04T20:50:12.571Z,89.13
2019-01-04T20:53:03.581Z,87.40
2019-01-04T20:56:02.540Z,85.83
2019-01-04T20:59:03.086Z,80.37
2019-01-04T21:01:56.858Z,79.93
2019-01-04T21:04:50.311Z,85.53
2019-01-04T21:07:41.406Z,80.83
2019-01-04T21:10:24.218Z,96.67
2019-01-04T21:13:11.461Z,74.27
2019-01-04T21:15:58.598Z,76.30
2019-01-04T21:18:46.204Z,85.55
2019-01-04T21:21:33.426Z,76.30
2019-01-04T21:24:20.542Z,73.97
2019-01-04T21:27:18.004Z,76.83
2019-01-04T21:29:59.971Z,76.10
2019-01-04T21:36:08.736Z,76.40
2019-01-04T21:38:59.224Z,73.10
2019-01-04T21:42:00.268Z,71.93
2019-01-04T21:44:47.596Z,68.50
2019-01-04T21:47:36.154Z,69.23
2019-01-04T21:50:17.559Z,78.20
2019-01-04T21:53:23.875Z,80.83
2019-01-04T21:56:30.719Z,74.60
2019-01-04T21:59:19.786Z,83.23
2019-01-04T22:02:06.500Z,84.27
2019-01-04T22:05:00.964Z,85.07
2019-01-04T22:08:02.762Z,83.87
2019-01-04T22:10:51.798Z,81.53
2019-01-04T22:13:46.467Z,95.50
2019-01-04T22:16:34.989Z,79.97
2019-01-04T22:19:23.203Z,82.87
2019-01-04T22:22:30.219Z,89.77
2019-01-04T22:25:24.768Z,90.97
2019-01-04T22:28:40.092Z,89.83
2019-01-04T22:31:34.782Z,92.83
2019-01-04T22:34:23.237Z,83.17
2019-01-04T22:37:14.992Z,90.20
2019-01-04T22:40:10.358Z,89.03
2019-01-04T22:42:57.135Z,88.40
2019-01-04T22:45:44.029Z,84.73
2019-01-04T22:48:31.563Z,81.23
2019-01-04T22:51:21.639Z,81.83
2019-01-04T22:54:08.774Z,81.30
2019-01-04T22:57:05.860Z,80.20
2019-01-04T22:59:56.901Z,79.07
2019-01-04T23:02:43.924Z,91.13
2019-01-04T23:05:31.354Z,82.43
2019-01-04T23:08:38.268Z,76.13
2019-01-04T23:11:26.473Z,80.07
2019-01-04T23:14:17.806Z,77.97
2019-01-04T23:17:03.825Z,81.17
2019-01-04T23:19:53.552Z,71.83
2019-01-04T23:22:53.063Z,71.40
2019-01-04T23:25:40.263Z,69.30
2019-01-04T23:28:35.633Z,82.63
2019-01-04T23:31:27.190Z,75.30
2019-01-04T23:34:15.251Z,77.83
2019-01-04T23:37:02.184Z,74.90
2019-01-04T23:39:54.918Z,79.03
2019-01-04T23:42:42.362Z,80.80
2019-01-04T23:45:29.359Z,74.20
2019-01-04T23:48:16.048Z,80.60
2019-01-04T23:51:05.252Z,80.23
2019-01-04T23:54:00.799Z,80.43
2019-01-04T23:56:55.483Z,74.80
2019-01-04T23:59:42.570Z,79.93
